Time;durP1;ratioP1;P1;durP2;ratioP2;P2;SDS_P1;SDS_P2;PMS_P1;PMS_P2;Temp;Humidity;BMP_temperature;BMP_pressure;BME280_temperature;BME280_humidity;BME280_pressure;Samples;Min_cycle;Max_cycle;Signal;HPM_P1;HPM_P2
2022/04/06 00:02:13;;;;;;;6.30;5.70;;;;;;;7.49;100.00;97812.58;105290;1268;70531;-70
2022/04/06 00:04:39;;;;;;;6.50;5.90;;;;;;;7.48;100.00;97801.49;105014;1268;73822;-70
2022/04/06 00:07:06;;;;;;;6.50;5.90;;;;;;;7.49;100.00;97797.19;105205;1268;62146;-69
2022/04/06 00:09:32;;;;;;;7.50;6.40;;;;;;;7.52;100.00;97801.23;105251;1268;62157;-70
2022/04/06 00:11:59;;;;;;;6.70;6.10;;;;;;;7.54;100.00;97804.73;104997;1268;74566;-68
2022/04/06 00:14:26;;;;;;;6.20;5.60;;;;;;;7.54;100.00;97808.63;104931;1268;70094;-69
2022/04/06 00:16:52;;;;;;;7.20;6.60;;;;;;;7.54;100.00;97809.71;105045;1267;74399;-68
2022/04/06 00:19:19;;;;;;;6.20;5.60;;;;;;;7.55;100.00;97815.50;104922;1268;62134;-69
2022/04/06 00:21:45;;;;;;;7.10;6.40;;;;;;;7.56;100.00;97816.48;104685;1268;62080;-70
2022/04/06 00:24:12;;;;;;;7.20;6.50;;;;;;;7.57;100.00;97816.42;104984;1268;77251;-70
2022/04/06 00:26:39;;;;;;;7.00;6.30;;;;;;;7.58;100.00;97812.41;104941;1268;69354;-70
2022/04/06 00:29:06;;;;;;;7.30;6.60;;;;;;;7.60;100.00;97811.23;105233;1271;73465;-70
2022/04/06 00:31:32;;;;;;;7.90;7.20;;;;;;;7.61;100.00;97809.36;105279;1268;62187;-67
2022/04/06 00:33:59;;;;;;;6.10;5.50;;;;;;;7.62;100.00;97811.77;104956;1268;62071;-70
2022/04/06 00:36:26;;;;;;;6.60;6.00;;;;;;;7.63;100.00;97808.18;105244;1268;77188;-71
2022/04/06 00:38:52;;;;;;;7.20;6.50;;;;;;;7.63;100.00;97807.67;105268;1268;69223;-70
2022/04/06 00:41:21;;;;;;;7.50;6.80;;;;;;;7.62;100.00;97805.27;105253;1268;74789;-70
2022/04/06 00:44:09;;;;;;;6.90;6.20;;;;;;;7.61;100.00;97808.33;105379;1268;62093;-70
2022/04/06 00:46:36;;;;;;;6.90;6.30;;;;;;;7.60;100.00;97808.53;104952;1266;62395;-70
2022/04/06 00:49:03;;;;;;;6.80;6.20;;;;;;;7.62;100.00;97805.97;104935;1268;77091;-69
2022/04/06 00:51:31;;;;;;;7.00;6.40;;;;;;;7.63;100.00;97807.98;104923;1268;69374;-70
2022/04/06 00:53:58;;;;;;;6.70;6.10;;;;;;;7.64;100.00;97805.45;105160;1271;73359;-70
2022/04/06 00:56:25;;;;;;;6.90;6.20;;;;;;;7.64;100.00;97808.30;104988;1268;362984;-71
2022/04/06 00:58:51;;;;;;;7.30;6.60;;;;;;;7.62;100.00;97807.14;104945;1268;62368;-71
2022/04/06 01:01:18;;;;;;;6.90;6.30;;;;;;;7.63;100.00;97805.02;105237;1268;77229;-71
2022/04/06 01:03:44;;;;;;;8.50;7.80;;;;;;;7.63;100.00;97809.94;105251;1268;67447;-70
2022/04/06 01:06:11;;;;;;;7.90;6.90;;;;;;;7.64;100.00;97810.41;105212;1267;73370;-70
2022/04/06 01:08:38;;;;;;;6.00;5.50;;;;;;;7.63;100.00;97810.96;105111;1268;62080;-69
2022/04/06 01:11:04;;;;;;;7.10;6.50;;;;;;;7.62;100.00;97806.09;105010;1268;61989;-69
2022/04/06 01:13:31;;;;;;;6.50;5.90;;;;;;;7.61;100.00;97806.89;105236;1268;77138;-69
2022/04/06 01:15:57;;;;;;;7.10;6.50;;;;;;;7.60;100.00;97808.87;105248;1268;70413;-70
2022/04/06 01:18:24;;;;;;;6.80;6.20;;;;;;;7.60;100.00;97800.95;105237;1268;62406;-69
2022/04/06 01:20:50;;;;;;;6.80;6.20;;;;;;;7.61;100.00;97812.38;105256;1268;62199;-70
2022/04/06 01:23:17;;;;;;;7.30;6.70;;;;;;;7.61;100.00;97808.68;105220;1267;62372;-70
2022/04/06 01:25:49;;;;;;;7.00;6.20;;;;;;;7.60;100.00;97810.88;105109;1268;77083;-70
2022/04/06 01:28:16;;;;;;;6.70;6.10;;;;;;;7.60;100.00;97820.61;104919;1268;70093;-70
2022/04/06 01:30:43;;;;;;;6.20;5.60;;;;;;;7.61;100.00;97818.58;104620;1268;73639;-70
2022/04/06 01:33:10;;;;;;;6.00;5.50;;;;;;;7.62;100.00;97818.31;104910;1268;62085;-70
2022/04/06 01:35:38;;;;;;;7.70;6.80;;;;;;;7.62;100.00;97822.89;104942;1268;62156;-69
2022/04/06 01:38:05;;;;;;;6.30;5.80;;;;;;;7.64;100.00;97821.71;104892;1268;76075;-70
2022/04/06 01:40:33;;;;;;;7.30;6.60;;;;;;;7.65;100.00;97814.73;105073;1268;69345;-71
2022/04/06 01:43:00;;;;;;;6.80;6.20;;;;;;;7.67;100.00;97814.42;104920;1268;72974;-70
2022/04/06 01:45:27;;;;;;;7.10;6.60;;;;;;;7.70;100.00;97814.88;104987;1268;62093;-70
2022/04/06 01:47:53;;;;;;;7.30;6.70;;;;;;;7.75;100.00;97812.23;105125;1268;62170;-71
2022/04/06 01:53:05;;;;;;;6.20;5.60;;;;;;;7.84;100.00;97813.54;105015;1268;70434;-70
2022/04/06 01:55:32;;;;;;;6.50;6.00;;;;;;;7.87;100.00;97813.98;104910;1268;73606;-70
2022/04/06 01:57:59;;;;;;;7.60;6.90;;;;;;;7.89;100.00;97812.92;104643;1268;62134;-71
2022/04/06 02:00:35;;;;;;;6.60;6.00;;;;;;;7.90;100.00;97813.58;104887;1271;62058;-69
2022/04/06 02:03:02;;;;;;;7.10;6.40;;;;;;;7.90;100.00;97816.74;104914;1268;76224;-69
2022/04/06 02:05:33;;;;;;;5.80;5.30;;;;;;;7.92;100.00;97823.72;104959;1268;69613;-70
2022/04/06 02:07:59;;;;;;;7.70;7.00;;;;;;;7.95;100.00;97814.83;104975;1271;73450;-70
2022/04/06 02:10:27;;;;;;;6.90;6.30;;;;;;;7.96;100.00;97823.59;105109;1268;62117;-68
2022/04/06 02:12:57;;;;;;;6.40;5.90;;;;;;;7.97;100.00;97810.44;105177;1271;62049;-70
2022/04/06 02:15:27;;;;;;;7.20;6.50;;;;;;;7.97;100.00;97814.98;104815;1268;77683;-71
2022/04/06 02:17:54;;;;;;;7.00;6.40;;;;;;;7.96;100.00;97810.34;105282;1268;70481;-71
2022/04/06 02:20:21;;;;;;;8.20;6.80;;;;;;;7.95;100.00;97813.42;105286;1268;73474;-70
2022/04/06 02:22:48;;;;;;;6.30;5.80;;;;;;;7.95;100.00;97808.97;104928;1268;62410;-70
2022/04/06 02:25:15;;;;;;;7.30;6.60;;;;;;;7.96;100.00;97808.40;105177;1271;62175;-71
2022/04/06 02:27:50;;;;;;;6.30;5.80;;;;;;;7.96;100.00;97809.27;105165;1268;77218;-70
2022/04/06 02:30:18;;;;;;;6.40;5.80;;;;;;;7.96;100.00;97810.64;105331;1271;69604;-69
2022/04/06 02:32:45;;;;;;;7.20;6.50;;;;;;;7.98;100.00;97814.42;105264;1268;73006;-69
2022/04/06 02:35:13;;;;;;;6.80;6.20;;;;;;;7.98;100.00;97813.16;105217;1269;62163;-69
2022/04/06 02:37:41;;;;;;;6.80;6.20;;;;;;;7.99;100.00;97813.83;105276;1268;62411;-70
2022/04/06 02:40:10;;;;;;;7.10;6.40;;;;;;;7.99;100.00;97817.36;105321;1268;77228;-68
2022/04/06 02:42:37;;;;;;;8.80;8.00;;;;;;;7.99;100.00;97817.33;105329;1271;70322;-69
2022/04/06 02:45:05;;;;;;;7.20;6.60;;;;;;;8.00;100.00;97818.00;105277;1267;74855;-71
2022/04/06 02:47:31;;;;;;;7.80;7.20;;;;;;;7.98;100.00;97815.10;105294;1268;62094;-72
2022/04/06 02:49:58;;;;;;;7.20;6.50;;;;;;;7.95;100.00;97815.89;105067;1268;62113;-70
2022/04/06 02:52:24;;;;;;;8.30;7.60;;;;;;;7.90;100.00;97818.19;105290;1268;77332;-72
2022/04/06 02:54:52;;;;;;;7.40;6.80;;;;;;;7.85;100.00;97817.48;105270;1268;70345;-71
2022/04/06 02:57:18;;;;;;;8.40;7.60;;;;;;;7.81;100.00;97822.71;105239;1268;73423;-72
2022/04/06 02:59:45;;;;;;;8.50;7.60;;;;;;;7.79;100.00;97824.33;105220;1268;62052;-70
2022/04/06 03:02:12;;;;;;;7.90;7.20;;;;;;;7.78;100.00;97816.20;105226;1266;61983;-71
2022/04/06 03:04:38;;;;;;;7.50;6.80;;;;;;;7.80;100.00;97813.77;105218;1268;77082;-72
2022/04/06 03:07:05;;;;;;;7.90;7.10;;;;;;;7.84;100.00;97815.83;105261;1268;69441;-67
2022/04/06 03:09:31;;;;;;;7.90;7.10;;;;;;;7.88;100.00;97812.33;104887;1268;73405;-71
2022/04/06 03:11:59;;;;;;;6.80;6.10;;;;;;;7.90;100.00;97818.70;105233;1268;61988;-70
2022/04/06 03:14:26;;;;;;;8.60;7.80;;;;;;;7.89;100.00;97823.02;105263;1268;61983;-71
2022/04/06 03:16:52;;;;;;;7.60;7.00;;;;;;;7.87;100.00;97823.15;105062;1268;75198;-69
2022/04/06 03:19:19;;;;;;;8.00;7.30;;;;;;;7.86;100.00;97824.99;105001;1268;70713;-69
2022/04/06 03:21:45;;;;;;;8.40;7.60;;;;;;;7.87;100.00;97825.10;104931;1268;74432;-68
2022/04/06 03:24:12;;;;;;;8.90;8.00;;;;;;;7.89;100.00;97827.25;104928;1268;62182;-70
2022/04/06 03:26:38;;;;;;;7.90;7.20;;;;;;;7.89;100.00;97822.65;105149;1268;62209;-68
2022/04/06 03:29:05;;;;;;;7.70;7.00;;;;;;;7.88;100.00;97822.80;105129;1268;76538;-71
2022/04/06 03:31:32;;;;;;;8.30;7.40;;;;;;;7.85;100.00;97830.77;105291;1268;70617;-70
2022/04/06 03:33:58;;;;;;;9.10;8.20;;;;;;;7.83;100.00;97833.40;105249;1267;62104;-69
2022/04/06 03:36:25;;;;;;;8.80;7.80;;;;;;;7.83;100.00;97840.13;105196;1268;61904;-70
2022/04/06 03:38:51;;;;;;;8.30;7.40;;;;;;;7.82;100.00;97835.55;105214;1268;62169;-69
2022/04/06 03:41:18;;;;;;;7.10;6.40;;;;;;;7.82;100.00;97840.16;105381;1268;62062;-68
2022/04/06 03:43:45;;;;;;;8.10;7.30;;;;;;;7.83;100.00;97839.56;105351;1268;68014;-71
2022/04/06 03:46:11;;;;;;;7.10;6.40;;;;;;;7.85;100.00;97843.84;105169;1268;74413;-69
2022/04/06 03:48:38;;;;;;;8.10;7.30;;;;;;;7.87;100.00;97839.64;104991;1268;62200;-69
2022/04/06 03:51:05;;;;;;;8.50;7.80;;;;;;;7.88;100.00;97838.88;105017;1268;62097;-70
2022/04/06 03:53:31;;;;;;;7.90;7.10;;;;;;;7.88;100.00;97840.95;105161;1268;77219;-70
2022/04/06 03:55:58;;;;;;;8.00;7.30;;;;;;;7.90;100.00;97839.23;105161;1268;69383;-71
2022/04/06 03:58:24;;;;;;;8.20;7.40;;;;;;;7.93;100.00;97836.55;105085;1268;74544;-69
2022/04/06 04:00:51;;;;;;;7.60;6.90;;;;;;;7.96;100.00;97841.25;105223;1268;62203;-71
2022/04/06 04:03:17;;;;;;;7.20;6.60;;;;;;;7.99;100.00;97844.40;105020;1269;62166;-70
2022/04/06 04:05:44;;;;;;;7.90;7.20;;;;;;;8.02;100.00;97845.95;105350;1268;76680;-70
2022/04/06 04:08:11;;;;;;;8.10;7.40;;;;;;;8.05;100.00;97848.52;105292;1268;70484;-70
2022/04/06 04:10:37;;;;;;;8.00;7.20;;;;;;;8.09;100.00;97847.39;105294;1268;74509;-70
2022/04/06 04:13:04;;;;;;;8.10;7.30;;;;;;;8.10;100.00;97843.71;104955;1268;62059;-69
2022/04/06 04:15:31;;;;;;;8.00;7.30;;;;;;;8.12;100.00;97848.14;105273;1268;62104;-69
2022/04/06 04:17:58;;;;;;;8.40;7.60;;;;;;;8.14;100.00;97843.98;105274;1268;77115;-70
2022/04/06 04:20:25;;;;;;;8.50;7.70;;;;;;;8.16;100.00;97845.94;105252;1271;70860;-71
2022/04/06 04:22:51;;;;;;;9.10;8.30;;;;;;;8.18;100.00;97846.88;105249;1268;74486;-69
2022/04/06 04:25:18;;;;;;;8.20;7.50;;;;;;;8.20;100.00;97850.63;105098;1267;62059;-70
2022/04/06 04:27:44;;;;;;;9.40;8.50;;;;;;;8.22;100.00;97841.27;105261;1268;61194;-69
2022/04/06 04:30:11;;;;;;;8.90;8.00;;;;;;;8.23;100.00;97842.60;105267;1268;76872;-69
2022/04/06 04:32:38;;;;;;;8.70;7.80;;;;;;;8.23;100.00;97847.52;105216;1271;70381;-69
2022/04/06 04:35:06;;;;;;;9.50;8.60;;;;;;;8.23;100.00;97855.66;105208;1268;73010;-71
2022/04/06 04:37:34;;;;;;;8.30;7.60;;;;;;;8.23;100.00;97850.36;105207;1273;62101;-70
2022/04/06 04:40:00;;;;;;;8.20;7.40;;;;;;;8.24;100.00;97850.50;105255;1271;62074;-70
2022/04/06 04:42:28;;;;;;;9.50;8.50;;;;;;;8.25;100.00;97856.98;105223;1268;77455;-69
2022/04/06 04:44:54;;;;;;;9.90;9.00;;;;;;;8.26;100.00;97854.56;105207;1271;70324;-70
2022/04/06 04:47:21;;;;;;;9.50;8.60;;;;;;;8.28;100.00;97857.40;105212;1271;62053;-69
2022/04/06 04:49:48;;;;;;;9.40;8.60;;;;;;;8.33;100.00;97859.52;105210;1271;62144;-70
2022/04/06 04:52:15;;;;;;;8.80;7.90;;;;;;;8.38;100.00;97867.30;105070;1271;62201;-70
2022/04/06 04:54:42;;;;;;;9.10;8.30;;;;;;;8.42;100.00;97870.41;105295;1271;76005;-70
2022/04/06 04:57:09;;;;;;;9.30;8.40;;;;;;;8.44;100.00;97866.16;104856;1271;70405;-71
2022/04/06 04:59:35;;;;;;;9.30;8.40;;;;;;;8.48;100.00;97868.72;105163;1271;74414;-70
2022/04/06 05:02:02;;;;;;;11.30;10.30;;;;;;;8.51;100.00;97876.94;105164;1271;62098;-71
2022/04/06 05:04:29;;;;;;;8.30;7.50;;;;;;;8.56;100.00;97876.20;105241;1271;62089;-71
2022/04/06 05:06:55;;;;;;;8.30;7.60;;;;;;;8.60;100.00;97883.69;105228;1271;77457;-71
2022/04/06 05:09:22;;;;;;;8.60;7.80;;;;;;;8.64;100.00;97886.58;104922;1271;62156;-70
2022/04/06 05:11:49;;;;;;;9.10;8.30;;;;;;;8.66;100.00;97881.61;105166;1271;74402;-70
2022/04/06 05:14:15;;;;;;;8.60;7.80;;;;;;;8.71;100.00;97880.93;104907;1271;62088;-70
2022/04/06 05:16:42;;;;;;;8.10;7.50;;;;;;;8.74;100.00;97889.35;105214;1271;62070;-70
2022/04/06 05:19:08;;;;;;;8.00;7.30;;;;;;;8.77;100.00;97890.70;105207;1271;77163;-70
2022/04/06 05:21:35;;;;;;;10.20;8.60;;;;;;;8.81;100.00;97894.70;104974;1271;70278;-70
2022/04/06 05:24:04;;;;;;;8.50;7.60;;;;;;;8.83;100.00;97899.09;105075;1271;74511;-70
2022/04/06 05:26:31;;;;;;;8.00;7.20;;;;;;;8.85;100.00;97899.83;105062;1270;62178;-69
2022/04/06 05:28:58;;;;;;;8.90;8.00;;;;;;;8.88;100.00;97902.28;105210;1271;62181;-70
2022/04/06 05:31:24;;;;;;;11.20;9.00;;;;;;;8.90;100.00;97901.17;105115;1271;77361;-70
2022/04/06 05:33:51;;;;;;;11.50;8.90;;;;;;;8.92;100.00;97901.57;104870;1271;69930;-72
2022/04/06 05:36:18;;;;;;;11.50;8.90;;;;;;;8.94;100.00;97902.81;105169;1271;73451;-69
2022/04/06 05:38:44;;;;;;;10.00;8.30;;;;;;;8.98;100.00;97900.63;104880;1271;62201;-71
2022/04/06 05:41:11;;;;;;;11.70;8.60;;;;;;;9.01;100.00;97904.77;105184;1271;62166;-70
2022/04/06 05:43:37;;;;;;;12.90;9.00;;;;;;;9.06;100.00;97903.48;105236;1268;77667;-69
2022/04/06 05:46:04;;;;;;;10.60;9.20;;;;;;;9.12;100.00;97901.11;105236;1268;69422;-70
2022/04/06 05:48:31;;;;;;;11.20;8.60;;;;;;;9.17;100.00;97897.84;105344;1268;74412;-69
2022/04/06 05:50:58;;;;;;;12.00;9.10;;;;;;;9.25;100.00;97906.29;105243;1268;62164;-71
2022/04/06 05:53:25;;;;;;;10.30;9.10;;;;;;;9.32;100.00;97905.77;105250;1268;62537;-70
2022/04/06 05:55:53;;;;;;;10.10;9.10;;;;;;;9.39;100.00;97903.00;105254;1268;75482;-70
2022/04/06 05:58:19;;;;;;;9.40;8.40;;;;;;;9.49;100.00;97900.11;105247;1271;70358;-70
2022/04/06 06:00:46;;;;;;;10.10;8.50;;;;;;;9.59;100.00;97908.53;105254;1268;74486;-69
2022/04/06 06:03:13;;;;;;;10.30;8.80;;;;;;;9.72;100.00;97909.80;105259;1268;62196;-71
2022/04/06 06:05:40;;;;;;;11.80;9.90;;;;;;;9.87;100.00;97908.54;105227;1268;62125;-70
2022/04/06 06:08:06;;;;;;;10.10;9.00;;;;;;;10.06;100.00;97906.45;105268;1268;77095;-70
2022/04/06 06:10:33;;;;;;;9.90;8.10;;;;;;;10.27;100.00;97908.98;105242;1268;70316;-70
2022/04/06 06:12:59;;;;;;;12.00;9.60;;;;;;;10.50;100.00;97908.50;105241;1268;73428;-70
2022/04/06 06:15:26;;;;;;;9.90;8.00;;;;;;;10.72;100.00;97906.02;105227;1268;62087;-69
2022/04/06 06:17:53;;;;;;;10.50;8.60;;;;;;;10.92;100.00;97907.96;105174;1268;62070;-72
2022/04/06 06:20:19;;;;;;;13.10;9.80;;;;;;;11.13;100.00;97904.98;105334;1268;77194;-71
2022/04/06 06:22:46;;;;;;;9.00;8.00;;;;;;;11.33;100.00;97906.23;105247;1268;69116;-71
2022/04/06 06:25:13;;;;;;;10.00;8.10;;;;;;;11.52;100.00;97911.02;105296;1268;73425;-72
2022/04/06 06:27:44;;;;;;;7.80;7.00;;;;;;;11.73;100.00;97916.25;105279;1268;62078;-71
2022/04/06 06:30:13;;;;;;;6.80;6.20;;;;;;;11.99;100.00;97911.95;105317;1268;62015;-71
2022/04/06 06:32:41;;;;;;;7.70;6.90;;;;;;;12.31;100.00;97919.44;105419;1268;77092;-72
2022/04/06 06:35:08;;;;;;;9.20;8.30;;;;;;;12.59;100.00;97913.27;105412;1268;69934;-72
2022/04/06 06:37:36;;;;;;;7.40;6.70;;;;;;;12.67;100.00;97921.80;105325;1271;73290;-72
2022/04/06 06:40:04;;;;;;;8.80;7.90;;;;;;;12.63;99.95;97924.27;105330;1268;62050;-71
2022/04/06 06:42:32;;;;;;;;;;;;;;;12.54;100.00;97925.13;105343;1271;62078;-72
2022/04/06 06:44:59;;;;;;;7.60;6.90;;;;;;;12.48;100.00;97929.98;105271;1268;61956;-71
2022/04/06 06:47:25;;;;;;;7.90;7.20;;;;;;;12.51;100.00;97935.21;105058;1268;62217;-72
2022/04/06 06:49:52;;;;;;;6.90;6.30;;;;;;;12.54;100.00;97937.67;105248;1269;72937;-71
2022/04/06 06:52:19;;;;;;;6.00;5.30;;;;;;;12.55;99.89;97940.05;105252;1268;62093;-72
2022/04/06 06:54:45;;;;;;;6.20;5.60;;;;;;;12.56;99.89;97936.73;105302;1268;62193;-72
2022/04/06 06:57:12;;;;;;;8.10;6.80;;;;;;;12.53;100.00;97936.99;105279;1268;76162;-72
2022/04/06 06:59:41;;;;;;;7.60;6.80;;;;;;;12.48;100.00;97942.07;105310;1268;68839;-72
2022/04/06 07:02:09;;;;;;;6.70;6.10;;;;;;;12.50;100.00;97941.12;105444;1268;74720;-72
2022/04/06 07:04:36;;;;;;;6.80;6.20;;;;;;;12.53;99.98;97942.17;105036;1274;62072;-73
2022/04/06 07:07:04;;;;;;;6.80;6.10;;;;;;;12.53;100.00;97940.19;105061;1271;62219;-72
2022/04/06 07:09:30;;;;;;;5.80;5.30;;;;;;;12.61;99.99;97939.46;105300;1268;77261;-71
2022/04/06 07:11:57;;;;;;;5.70;5.20;;;;;;;12.64;100.00;97938.48;105316;1268;70497;-72
2022/04/06 07:14:23;;;;;;;6.70;6.00;;;;;;;12.65;99.93;97933.21;105023;1268;73412;-71
2022/04/06 07:16:50;;;;;;;6.70;6.10;;;;;;;12.68;100.00;97926.85;105319;1268;62171;-72
2022/04/06 07:19:17;;;;;;;6.00;5.50;;;;;;;12.65;99.68;97926.41;105301;1268;62075;-73
2022/04/06 07:21:43;;;;;;;6.30;5.70;;;;;;;12.71;100.00;97928.70;105046;1268;77243;-72
2022/04/06 07:24:10;;;;;;;6.10;5.60;;;;;;;12.89;99.38;97930.96;105249;1268;68929;-72
2022/04/06 07:26:37;;;;;;;6.40;5.70;;;;;;;13.06;99.24;97936.68;105054;1268;74457;-72
2022/04/06 07:29:03;;;;;;;5.80;5.30;;;;;;;13.18;98.98;97940.52;105299;1268;62185;-72
2022/04/06 07:31:30;;;;;;;5.80;5.20;;;;;;;13.17;98.10;97939.71;105129;1268;62264;-72
2022/04/06 07:33:56;;;;;;;7.10;6.00;;;;;;;13.12;97.66;97939.04;105315;1268;62072;-72
2022/04/06 07:36:23;;;;;;;6.10;5.10;;;;;;;13.07;98.18;97938.35;105287;1268;70447;-71
2022/04/06 07:38:50;;;;;;;5.80;5.30;;;;;;;13.17;98.13;97937.83;105297;1268;74395;-72
2022/04/06 07:41:17;;;;;;;6.70;5.60;;;;;;;13.33;98.47;97937.08;105085;1269;62116;-72
2022/04/06 07:43:45;;;;;;;5.50;5.00;;;;;;;13.47;98.21;97933.70;105320;1268;62123;-72
2022/04/06 07:46:12;;;;;;;6.10;5.60;;;;;;;13.61;97.77;97930.38;105045;1269;77150;-72
2022/04/06 07:48:41;;;;;;;6.10;5.50;;;;;;;13.73;97.88;97929.44;105296;1268;68890;-72
2022/04/06 07:51:07;;;;;;;5.50;5.00;;;;;;;13.89;97.85;97930.23;105277;1268;74347;-72
2022/04/06 07:53:34;;;;;;;5.80;5.30;;;;;;;14.02;96.33;97926.97;105309;1268;62019;-72
2022/04/06 07:56:01;;;;;;;5.90;5.40;;;;;;;13.89;95.17;97930.41;105326;1269;62170;-72
2022/04/06 07:58:28;;;;;;;5.20;4.70;;;;;;;13.73;96.47;97930.20;105284;1268;77129;-72
2022/04/06 08:00:54;;;;;;;6.40;5.20;;;;;;;13.70;96.15;97934.39;105291;1268;70308;-71
2022/04/06 08:03:21;;;;;;;6.00;5.40;;;;;;;13.73;96.50;97929.59;105307;1268;74432;-71
2022/04/06 08:05:48;;;;;;;5.80;5.30;;;;;;;13.92;97.16;97939.94;105301;1268;62057;-73
2022/04/06 08:08:15;;;;;;;5.90;5.40;;;;;;;13.95;97.35;97943.16;105027;1269;62092;-72
2022/04/06 08:10:42;;;;;;;5.10;4.70;;;;;;;13.79;96.54;97937.77;105349;1268;76118;-72
2022/04/06 08:13:08;;;;;;;5.90;5.40;;;;;;;13.52;97.19;97941.06;105290;1268;69311;-71
2022/04/06 08:15:35;;;;;;;5.40;4.90;;;;;;;13.45;97.93;97953.98;105563;1268;74481;-72
2022/04/06 08:18:02;;;;;;;5.10;4.60;;;;;;;13.39;97.87;97957.52;105000;1272;62069;-71
2022/04/06 08:20:28;;;;;;;5.50;5.00;;;;;;;13.30;98.36;97958.72;105340;1268;62085;-71
2022/04/06 08:22:56;;;;;;;6.00;5.50;;;;;;;13.16;98.70;97964.44;105294;1268;76672;-71
2022/04/06 08:25:33;;;;;;;5.70;5.20;;;;;;;13.06;99.45;97964.52;105060;1274;70475;-72
2022/04/06 08:28:03;;;;;;;6.40;5.80;;;;;;;12.96;99.03;97960.83;105318;1268;73435;-71
2022/04/06 08:30:30;;;;;;;6.30;5.70;;;;;;;12.96;99.54;97966.53;105269;1268;62094;-73
2022/04/06 08:32:59;;;;;;;6.10;5.40;;;;;;;13.04;99.80;97968.09;105155;1274;62239;-73
2022/04/06 08:35:26;;;;;;;6.30;5.70;;;;;;;13.14;99.92;97973.91;105350;1268;76975;-72
2022/04/06 08:37:53;;;;;;;7.20;5.70;;;;;;;13.28;100.00;97979.40;105352;1269;69199;-72
2022/04/06 08:40:20;;;;;;;5.90;5.40;;;;;;;13.53;100.00;97978.67;105348;1268;73315;-73
2022/04/06 08:42:47;;;;;;;6.60;6.00;;;;;;;13.65;100.00;97978.92;105378;1268;62219;-72
2022/04/06 08:45:18;;;;;;;6.30;5.80;;;;;;;13.63;99.99;97977.04;105392;1268;61937;-72
2022/04/06 08:47:48;;;;;;;6.00;5.40;;;;;;;13.48;99.81;97979.17;105298;1268;76674;-72
2022/04/06 08:50:20;;;;;;;6.00;5.30;;;;;;;13.37;99.97;97978.79;105357;1268;68852;-72
2022/04/06 08:52:47;;;;;;;7.30;6.50;;;;;;;13.31;100.00;97979.28;105273;1268;74302;-71
2022/04/06 08:55:15;;;;;;;6.40;5.70;;;;;;;13.40;100.00;97983.14;105271;1268;62148;-72
2022/04/06 08:57:42;;;;;;;5.50;4.90;;;;;;;13.44;100.00;97981.97;105313;1268;62072;-72
2022/04/06 09:00:10;;;;;;;6.40;5.80;;;;;;;13.43;99.95;97981.05;105324;1268;75918;-71
2022/04/06 09:02:36;;;;;;;6.20;5.60;;;;;;;13.49;99.97;97986.19;105053;1273;69217;-74
2022/04/06 09:05:03;;;;;;;6.10;5.20;;;;;;;13.49;99.92;97984.77;105240;1268;74429;-72
2022/04/06 09:07:31;;;;;;;5.90;5.40;;;;;;;13.58;99.96;97984.55;105268;1268;62194;-72
2022/04/06 09:09:58;;;;;;;5.50;5.00;;;;;;;13.54;99.37;97982.68;105336;1268;62221;-72
2022/04/06 09:12:25;;;;;;;5.90;5.30;;;;;;;13.45;99.98;97982.48;105286;1268;77442;-73
2022/04/06 09:15:06;;;;;;;6.40;5.60;;;;;;;13.57;100.00;97981.31;105406;1268;69701;-72
2022/04/06 09:17:44;;;;;;;5.30;4.80;;;;;;;13.77;99.87;97979.57;105286;1268;73733;-72
2022/04/06 09:20:11;;;;;;;6.60;5.90;;;;;;;13.87;99.74;97984.02;105334;1268;62076;-72
2022/04/06 09:22:38;;;;;;;6.10;5.50;;;;;;;13.88;99.47;97984.83;105309;1268;62082;-73
2022/04/06 09:25:05;;;;;;;6.10;5.50;;;;;;;13.76;98.25;97983.27;105286;1268;76243;-72
2022/04/06 09:27:33;;;;;;;7.30;5.30;;;;;;;13.54;98.04;97982.88;105331;1268;69424;-72
2022/04/06 09:30:03;;;;;;;5.20;4.70;;;;;;;13.36;98.08;97980.42;105354;1268;74681;-72
2022/04/06 09:32:30;;;;;;;6.40;5.00;;;;;;;13.32;99.04;97977.63;105460;1268;62053;-71
2022/04/06 09:34:57;;;;;;;9.40;7.40;;;;;;;13.41;99.36;97976.38;105298;1269;62102;-72
2022/04/06 09:37:33;;;;;;;7.20;6.40;;;;;;;13.56;99.52;97974.64;105050;1268;76446;-73
2022/04/06 09:40:08;;;;;;;9.50;7.80;;;;;;;13.66;99.19;97971.19;105284;1271;70712;-72
2022/04/06 09:42:35;;;;;;;6.40;5.80;;;;;;;13.76;99.31;97968.41;105304;1268;74411;-72
2022/04/06 09:47:58;;;;;;;6.00;5.40;;;;;;;13.81;97.80;97968.77;105326;1268;62126;-71
2022/04/06 09:50:27;;;;;;;5.80;5.30;;;;;;;13.69;98.13;97965.23;105314;1268;75371;-72
2022/04/06 09:53:00;;;;;;;5.70;5.20;;;;;;;13.53;98.13;97966.15;105290;1268;70166;-71
2022/04/06 09:55:26;;;;;;;5.30;4.60;;;;;;;13.39;98.48;97962.19;105470;1268;74285;-72
2022/04/06 09:57:55;;;;;;;5.00;4.50;;;;;;;13.26;98.62;97965.51;105306;1268;62048;-71
2022/04/06 10:00:28;;;;;;;4.60;4.20;;;;;;;13.18;98.44;97963.79;105295;1268;62102;-71
2022/04/06 10:03:04;;;;;;;4.70;3.90;;;;;;;13.11;97.90;97964.04;105287;1268;76854;-72
2022/04/06 10:05:33;;;;;;;3.60;3.30;;;;;;;13.05;96.78;97963.34;105269;1268;69848;-71
2022/04/06 10:08:06;;;;;;;3.80;3.40;;;;;;;12.97;97.04;97960.19;105310;1268;73449;-71
2022/04/06 10:10:38;;;;;;;3.70;3.30;;;;;;;12.87;96.82;97958.58;105301;1268;62070;-72
2022/04/06 10:13:05;;;;;;;4.30;3.90;;;;;;;12.74;96.72;97961.58;105458;1268;62070;-72
2022/04/06 10:15:32;;;;;;;5.10;4.00;;;;;;;12.64;97.49;97957.19;105287;1268;75575;-72
2022/04/06 10:18:00;;;;;;;7.80;3.50;;;;;;;12.61;97.77;97952.09;105060;1268;70143;-72
2022/04/06 10:20:40;;;;;;;4.10;3.50;;;;;;;12.57;97.26;97951.08;105279;1268;73248;-72
2022/04/06 10:23:22;;;;;;;3.70;2.90;;;;;;;12.50;97.59;97953.41;105348;1268;62104;-72
2022/04/06 10:25:55;;;;;;;3.10;2.80;;;;;;;12.43;97.61;97949.86;105308;1268;62029;-71
2022/04/06 10:28:22;;;;;;;4.20;3.40;;;;;;;12.36;97.92;97953.48;105287;1268;76251;-72
2022/04/06 10:31:14;;;;;;;4.10;3.60;;;;;;;12.36;97.67;97945.30;105295;1268;69281;-72
2022/04/06 10:33:41;;;;;;;4.40;3.60;;;;;;;12.44;97.85;97940.85;105281;1268;73090;-71
2022/04/06 10:36:17;;;;;;;4.20;3.80;;;;;;;12.82;97.71;97942.57;105288;1268;62202;-72
2022/04/06 10:39:09;;;;;;;4.60;3.20;;;;;;;13.56;97.27;97934.67;105334;1268;62100;-71
2022/04/06 10:42:12;;;;;;;4.30;3.50;;;;;;;14.14;96.08;97925.42;105293;1268;77601;-71
2022/04/06 10:44:43;;;;;;;4.80;3.70;;;;;;;14.59;94.78;97918.47;105284;1268;70574;-72
2022/04/06 10:47:12;;;;;;;4.60;3.40;;;;;;;14.84;94.03;97920.98;105261;1268;73553;-71
2022/04/06 10:49:39;;;;;;;3.60;3.00;;;;;;;15.02;92.42;97921.32;105336;1268;62043;-72
2022/04/06 10:52:25;;;;;;;6.30;5.80;;;;;;;15.05;91.87;97922.59;105289;1271;62204;-71
2022/04/06 10:54:52;;;;;;;5.10;3.40;;;;;;;15.01;91.49;97917.69;105419;1268;75962;-73
2022/04/06 10:57:20;;;;;;;4.00;3.50;;;;;;;14.86;91.19;97914.84;105304;1268;68957;-73
2022/04/06 11:00:14;;;;;;;3.00;2.70;;;;;;;14.67;90.72;97912.53;105315;1268;73072;-73
2022/04/06 11:02:51;;;;;;;4.10;3.70;;;;;;;14.41;90.09;97918.82;105319;1267;62183;-73
2022/04/06 11:05:40;;;;;;;5.20;4.60;;;;;;;14.15;90.66;97920.38;105113;1271;62509;-72
2022/04/06 11:11:30;;;;;;;4.00;3.20;;;;;;;14.11;91.12;97916.39;105279;1268;70131;-72
2022/04/06 11:13:57;;;;;;;3.60;3.20;;;;;;;14.37;90.59;97922.66;105239;1268;72751;-73
2022/04/06 11:16:45;;;;;;;4.00;3.50;;;;;;;14.43;90.11;97917.90;104994;1273;62081;-74
2022/04/06 11:19:14;;;;;;;4.40;4.00;;;;;;;14.52;90.16;97922.05;105390;1268;62067;-74
2022/04/06 11:21:49;;;;;;;4.30;3.80;;;;;;;14.69;90.54;97919.23;105295;1271;75771;-74
2022/04/06 11:24:27;;;;;;;5.10;3.90;;;;;;;14.86;90.22;97916.15;105273;1267;69226;-74
2022/04/06 11:26:55;;;;;;;4.50;3.70;;;;;;;15.02;89.45;97916.07;105273;1271;71527;-73
2022/04/06 11:29:26;;;;;;;6.00;4.80;;;;;;;15.21;89.79;97915.57;105078;1268;62356;-73
2022/04/06 11:32:04;;;;;;;4.90;4.40;;;;;;;15.39;89.16;97910.71;105055;1271;62063;-73
2022/04/06 11:34:35;;;;;;;5.60;4.30;;;;;;;15.50;88.98;97908.08;105320;1268;76569;-72
2022/04/06 11:37:06;;;;;;;4.70;4.20;;;;;;;15.60;87.74;97906.63;105310;1271;69149;-72
2022/04/06 11:39:34;;;;;;;5.60;4.10;;;;;;;15.66;87.31;97898.52;105250;1268;72727;-74